createdAt,value
2022-12-23T00:01:15.346Z,11.07
2022-12-23T00:03:42.880Z,12.18
2022-12-23T00:06:15.218Z,17.60
2022-12-23T00:08:42.791Z,13.98
2022-12-23T00:11:16.326Z,12.52
2022-12-23T00:14:01.493Z,14.80
2022-12-23T00:16:28.134Z,12.90
2022-12-23T00:18:55.419Z,15.90
2022-12-23T00:21:23.018Z,18.48
2022-12-23T00:23:50.954Z,20.25
2022-12-23T00:26:20.823Z,18.23
2022-12-23T00:28:47.413Z,11.70
2022-12-23T00:31:14.869Z,15.32
2022-12-23T00:33:44.089Z,14.55
2022-12-23T00:36:19.300Z,11.35
2022-12-23T00:39:04.969Z,15.35
2022-12-23T00:41:50.337Z,15.77
2022-12-23T00:44:16.853Z,14.02
2022-12-23T00:46:43.406Z,11.20
2022-12-23T00:49:34.972Z,14.52
2022-12-23T00:52:03.369Z,13.15
2022-12-23T00:54:31.824Z,10.95
2022-12-23T00:56:59.269Z,8.80
2022-12-23T00:59:25.845Z,10.85
2022-12-23T01:02:11.147Z,12.50
2022-12-23T01:04:56.243Z,12.02
2022-12-23T01:07:24.876Z,9.57
2022-12-23T01:09:51.474Z,14.45
2022-12-23T01:12:18.328Z,11.18
2022-12-23T01:14:44.762Z,16.48
2022-12-23T01:17:11.663Z,8.95
2022-12-23T01:19:38.421Z,8.68
2022-12-23T01:22:05.037Z,14.63
2022-12-23T01:24:32.440Z,13.77
2022-12-23T01:26:59.511Z,12.90
2022-12-23T01:29:26.299Z,11.43
2022-12-23T01:31:52.952Z,14.60
2022-12-23T01:34:19.537Z,15.63
2022-12-23T01:36:46.023Z,13.65
2022-12-23T01:39:12.488Z,14.02
2022-12-23T01:41:57.280Z,12.82
2022-12-23T01:44:45.552Z,11.20
2022-12-23T01:47:19.414Z,11.10
2022-12-23T01:49:47.285Z,11.82
2022-12-23T01:52:14.766Z,9.98
2022-12-23T01:54:43.905Z,10.43
2022-12-23T01:57:11.095Z,13.77
2022-12-23T01:59:56.150Z,10.18
2022-12-23T02:02:41.709Z,16.83
2022-12-23T02:05:08.453Z,19.10
2022-12-23T02:07:54.093Z,11.23
2022-12-23T02:10:22.819Z,9.77
2022-12-23T02:13:06.710Z,12.73
2022-12-23T02:16:09.305Z,10.18
2022-12-23T02:19:00.137Z,12.98
2022-12-23T02:21:51.431Z,10.23
2022-12-23T02:24:32.846Z,8.20
2022-12-23T02:27:18.001Z,6.68
2022-12-23T02:30:06.333Z,8.27
2022-12-23T02:33:00.344Z,10.40
2022-12-23T02:36:03.256Z,8.75
2022-12-23T02:38:41.621Z,9.95
2022-12-23T02:41:38.293Z,10.50
2022-12-23T02:44:36.412Z,6.10
2022-12-23T02:47:11.255Z,8.63
2022-12-23T02:49:43.366Z,11.05
2022-12-23T02:52:15.819Z,7.55
2022-12-23T02:54:47.137Z,7.45
2022-12-23T02:57:17.635Z,10.00
2022-12-23T02:59:50.978Z,6.10
2022-12-23T03:02:18.374Z,10.85
2022-12-23T03:04:44.991Z,7.13
2022-12-23T03:07:20.885Z,11.05
2022-12-23T03:10:08.477Z,7.68
2022-12-23T03:13:00.206Z,9.35
2022-12-23T03:15:38.901Z,7.00
2022-12-23T03:18:31.417Z,6.50
2022-12-23T03:21:22.385Z,12.13
2022-12-23T03:23:56.152Z,7.22
2022-12-23T03:26:31.135Z,9.30
2022-12-23T03:29:05.305Z,13.38
2022-12-23T03:31:34.828Z,10.55
2022-12-23T03:34:09.860Z,13.27
2022-12-23T03:36:49.088Z,11.85
2022-12-23T03:39:20.480Z,10.02
2022-12-23T03:42:00.249Z,10.50
2022-12-23T03:44:38.253Z,7.72
2022-12-23T03:47:28.413Z,7.63
2022-12-23T03:50:03.842Z,10.10
2022-12-23T03:52:41.930Z,12.25
2022-12-23T03:55:16.419Z,8.68
2022-12-23T03:58:32.464Z,11.80
2022-12-23T04:01:18.183Z,9.38
2022-12-23T04:04:11.229Z,10.93
2022-12-23T04:06:51.857Z,7.93
2022-12-23T04:09:22.394Z,11.68
2022-12-23T04:11:49.512Z,8.50
2022-12-23T04:14:20.571Z,7.57
2022-12-23T04:16:49.616Z,10.52
2022-12-23T04:19:16.322Z,8.63
2022-12-23T04:21:42.770Z,12.25
2022-12-23T04:24:09.258Z,5.97
2022-12-23T04:26:35.698Z,6.50
2022-12-23T04:29:02.256Z,6.38
2022-12-23T04:31:28.837Z,6.35
2022-12-23T04:33:55.502Z,8.30
2022-12-23T04:36:21.980Z,8.05
2022-12-23T04:38:48.705Z,7.88
2022-12-23T04:41:15.196Z,6.35
2022-12-23T04:43:41.692Z,8.55
2022-12-23T04:46:08.183Z,7.60
2022-12-23T04:48:35.955Z,6.10
2022-12-23T04:51:03.288Z,7.55
2022-12-23T04:53:29.900Z,8.93
2022-12-23T04:55:56.359Z,5.30
2022-12-23T04:58:24.926Z,4.90
2022-12-23T05:01:02.090Z,5.45
2022-12-23T05:03:28.741Z,5.07
2022-12-23T05:05:55.238Z,6.88
2022-12-23T05:08:21.786Z,6.68
2022-12-23T05:10:48.385Z,10.35
2022-12-23T05:13:15.151Z,7.13
2022-12-23T05:15:44.968Z,8.50
2022-12-23T05:18:12.090Z,6.95
2022-12-23T05:20:38.739Z,6.28
2022-12-23T05:23:05.265Z,7.97
2022-12-23T05:25:36.440Z,9.18
2022-12-23T05:28:03.838Z,6.85
2022-12-23T05:30:30.553Z,8.32
2022-12-23T05:32:57.197Z,6.57
2022-12-23T05:35:25.579Z,7.50
2022-12-23T05:37:52.956Z,5.78
2022-12-23T05:40:23.695Z,7.82
2022-12-23T05:42:54.082Z,5.80
2022-12-23T05:45:20.894Z,5.72
2022-12-23T05:47:47.497Z,6.70
2022-12-23T05:50:14.306Z,7.60
2022-12-23T05:52:41.009Z,5.45
2022-12-23T05:55:08.251Z,6.13
2022-12-23T05:57:34.699Z,7.20
2022-12-23T06:00:01.161Z,8.13
2022-12-23T06:02:27.806Z,5.15
2022-12-23T06:04:54.419Z,5.35
2022-12-23T06:07:20.870Z,7.28
2022-12-23T06:09:47.380Z,5.70
2022-12-23T06:12:13.852Z,5.35
2022-12-23T06:14:40.317Z,6.00
2022-12-23T06:17:06.871Z,5.47
2022-12-23T06:19:33.399Z,6.53
2022-12-23T06:22:01.064Z,6.85
2022-12-23T06:24:27.525Z,5.45
2022-12-23T06:26:57.278Z,5.82
2022-12-23T06:29:24.895Z,5.10
2022-12-23T06:31:51.550Z,5.80
2022-12-23T06:34:18.197Z,6.13
2022-12-23T06:36:44.685Z,6.05
2022-12-23T06:39:11.496Z,5.88
2022-12-23T06:41:37.988Z,7.47
2022-12-23T06:44:04.754Z,6.88
2022-12-23T06:46:31.506Z,5.72
2022-12-23T06:48:58.075Z,6.22
2022-12-23T06:51:24.568Z,6.22
2022-12-23T06:53:51.194Z,5.82
2022-12-23T06:56:18.488Z,6.07
2022-12-23T06:58:45.095Z,5.88
2022-12-23T07:01:11.876Z,7.07
2022-12-23T07:03:38.427Z,7.25
2022-12-23T07:06:05.239Z,7.63
2022-12-23T07:08:31.698Z,8.27
2022-12-23T07:11:03.421Z,8.20
2022-12-23T07:15:56.670Z,7.03
2022-12-23T07:18:23.945Z,7.95
2022-12-23T07:20:51.595Z,8.82
2022-12-23T07:23:18.589Z,8.20
2022-12-23T07:25:45.066Z,7.43
2022-12-23T07:28:11.487Z,7.25
2022-12-23T07:30:37.991Z,8.15
2022-12-23T07:33:04.426Z,8.25
2022-12-23T07:35:31.039Z,12.45
2022-12-23T07:37:57.786Z,8.25
2022-12-23T07:40:25.631Z,10.88
2022-12-23T07:42:57.669Z,9.65
2022-12-23T07:45:25.448Z,10.63
2022-12-23T07:47:56.062Z,9.20
2022-12-23T07:50:23.150Z,15.63
2022-12-23T07:52:49.582Z,9.77
2022-12-23T07:55:16.279Z,9.95
2022-12-23T07:57:42.807Z,15.82
2022-12-23T08:00:13.946Z,12.13
2022-12-23T08:02:40.966Z,13.77
2022-12-23T08:05:08.747Z,10.85
2022-12-23T08:07:35.738Z,11.00
2022-12-23T08:10:02.696Z,11.05
2022-12-23T08:12:29.197Z,12.55
2022-12-23T08:14:55.762Z,15.30
2022-12-23T08:17:26.609Z,13.88
2022-12-23T08:19:53.091Z,14.95
2022-12-23T08:22:19.851Z,14.57
2022-12-23T08:24:46.421Z,15.77
2022-12-23T08:27:12.906Z,16.15
2022-12-23T08:29:40.121Z,14.43
2022-12-23T08:32:07.396Z,16.77
2022-12-23T08:34:34.403Z,19.42
2022-12-23T08:37:01.430Z,15.35
2022-12-23T08:39:28.239Z,17.77
2022-12-23T08:41:54.774Z,18.48
2022-12-23T08:44:21.871Z,20.55
2022-12-23T08:46:48.554Z,20.85
2022-12-23T08:49:15.189Z,22.02
2022-12-23T08:51:42.508Z,20.83
2022-12-23T08:54:10.130Z,20.85
2022-12-23T08:56:40.240Z,23.65
2022-12-23T08:59:07.621Z,21.17
2022-12-23T09:01:34.772Z,22.48
2022-12-23T09:04:06.213Z,22.10
2022-12-23T09:06:36.268Z,22.23
2022-12-23T09:09:03.729Z,18.52
2022-12-23T09:11:30.403Z,19.65
2022-12-23T09:13:59.711Z,24.23
2022-12-23T09:16:26.989Z,29.85
2022-12-23T09:18:53.574Z,24.20
2022-12-23T09:21:22.461Z,23.77
2022-12-23T09:23:49.203Z,23.27
2022-12-23T09:26:24.729Z,24.30
2022-12-23T09:28:51.484Z,23.83
2022-12-23T09:31:18.737Z,26.17
2022-12-23T09:33:50.525Z,26.35
2022-12-23T09:36:17.960Z,26.98
2022-12-23T09:38:45.012Z,28.85
2022-12-23T09:41:26.758Z,27.95
2022-12-23T09:43:57.706Z,27.73
2022-12-23T09:46:27.519Z,29.50
2022-12-23T09:49:03.008Z,38.55
2022-12-23T09:51:30.613Z,34.10
2022-12-23T09:54:21.079Z,31.73
2022-12-23T09:57:22.353Z,35.05
2022-12-23T10:00:11.384Z,30.05
2022-12-23T10:03:00.288Z,32.80
2022-12-23T10:05:51.855Z,26.60
2022-12-23T10:08:39.457Z,25.15
2022-12-23T10:11:14.757Z,32.38
2022-12-23T10:13:45.634Z,23.27
2022-12-23T10:16:18.882Z,19.07
2022-12-23T10:18:55.618Z,20.92
2022-12-23T10:21:35.260Z,19.27
2022-12-23T10:24:20.104Z,18.00
2022-12-23T10:26:54.300Z,20.67
2022-12-23T10:29:26.138Z,22.70
2022-12-23T10:35:15.231Z,19.23
2022-12-23T10:37:51.609Z,16.63
2022-12-23T10:40:24.755Z,19.45
2022-12-23T10:43:39.120Z,25.65
2022-12-23T10:46:33.798Z,16.60
2022-12-23T10:49:15.655Z,17.85
2022-12-23T10:51:57.545Z,18.17
2022-12-23T10:56:54.523Z,15.38
2022-12-23T10:59:26.456Z,16.70
2022-12-23T11:02:15.415Z,17.77
2022-12-23T11:04:47.170Z,16.27
2022-12-23T11:07:43.393Z,18.30
2022-12-23T11:10:13.105Z,18.85
2022-12-23T11:12:45.663Z,28.35
2022-12-23T11:15:32.730Z,25.42
2022-12-23T11:18:06.542Z,20.42
2022-12-23T11:20:35.278Z,21.45
2022-12-23T11:23:04.483Z,21.33
2022-12-23T11:25:38.313Z,26.05
2022-12-23T11:28:10.634Z,24.30
2022-12-23T11:30:57.651Z,23.73
2022-12-23T11:33:27.993Z,26.67
2022-12-23T11:36:08.438Z,27.30
2022-12-23T11:38:37.434Z,31.77
2022-12-23T11:41:05.047Z,36.42
2022-12-23T11:43:32.685Z,38.53
2022-12-23T11:46:15.092Z,41.63
2022-12-23T11:48:41.689Z,40.85
2022-12-23T11:51:08.468Z,39.80
2022-12-23T11:53:36.639Z,40.90
2022-12-23T11:56:08.830Z,38.13
2022-12-23T11:59:02.628Z,42.35
2022-12-23T12:01:29.249Z,40.55
2022-12-23T12:04:00.401Z,41.47
2022-12-23T12:06:28.074Z,42.28
2022-12-23T12:08:57.746Z,46.75
2022-12-23T12:11:31.819Z,43.20
2022-12-23T12:14:07.731Z,40.95
2022-12-23T12:16:40.336Z,41.60
2022-12-23T12:19:35.664Z,37.28
2022-12-23T12:22:13.578Z,30.98
2022-12-23T12:24:50.473Z,34.55
2022-12-23T12:27:20.744Z,35.72
2022-12-23T12:29:52.868Z,33.67
2022-12-23T12:32:30.220Z,30.83
2022-12-23T12:35:08.699Z,29.52
2022-12-23T12:37:45.260Z,29.35
2022-12-23T12:40:18.055Z,27.13
2022-12-23T12:42:52.269Z,29.00
2022-12-23T12:45:32.131Z,27.35
2022-12-23T12:48:33.901Z,32.80
2022-12-23T12:51:13.065Z,33.47
2022-12-23T12:54:10.441Z,26.33
2022-12-23T12:56:46.173Z,22.30
2022-12-23T12:59:25.931Z,25.15
2022-12-23T13:02:07.660Z,28.83
2022-12-23T13:05:00.901Z,33.47
2022-12-23T13:07:47.284Z,22.27
2022-12-23T13:10:32.432Z,21.65
2022-12-23T13:13:19.133Z,20.17
2022-12-23T13:15:59.447Z,23.42
2022-12-23T13:18:53.560Z,25.95
2022-12-23T13:21:45.065Z,24.58
2022-12-23T13:24:25.359Z,22.70
2022-12-23T13:27:10.860Z,23.33
2022-12-23T13:29:39.969Z,25.45
2022-12-23T13:32:28.669Z,22.27
2022-12-23T13:35:07.810Z,23.38
2022-12-23T13:37:54.157Z,24.08
2022-12-23T13:40:59.084Z,24.52
2022-12-23T13:43:35.718Z,23.90
2022-12-23T13:46:11.046Z,23.55
2022-12-23T13:48:53.511Z,25.52
2022-12-23T13:51:48.662Z,25.05
2022-12-23T13:54:27.579Z,24.48
2022-12-23T13:57:31.845Z,25.45
2022-12-23T14:00:20.406Z,21.42
2022-12-23T14:02:57.629Z,20.95
2022-12-23T14:05:41.983Z,21.13
2022-12-23T14:08:39.169Z,18.15
2022-12-23T14:11:08.665Z,17.85
2022-12-23T14:13:45.914Z,17.15
2022-12-23T14:16:21.161Z,16.60
2022-12-23T14:19:18.408Z,17.17
2022-12-23T14:22:10.233Z,15.82
2022-12-23T14:24:51.966Z,14.85
2022-12-23T14:27:33.611Z,23.13
2022-12-23T14:30:21.430Z,17.52
2022-12-23T14:32:54.981Z,21.85
2022-12-23T14:35:27.865Z,20.55
2022-12-23T14:38:08.170Z,17.80
2022-12-23T14:40:37.609Z,22.60
2022-12-23T14:43:22.427Z,24.27
2022-12-23T14:45:55.082Z,30.75
2022-12-23T14:48:33.630Z,18.88
2022-12-23T14:51:09.246Z,18.23
2022-12-23T14:53:58.099Z,18.38
2022-12-23T14:56:43.664Z,16.63
2022-12-23T14:59:34.407Z,18.88
2022-12-23T15:02:22.029Z,17.90
2022-12-23T15:04:54.676Z,17.77
2022-12-23T15:07:27.720Z,18.63
2022-12-23T15:10:01.089Z,14.50
2022-12-23T15:12:34.844Z,16.88
2022-12-23T15:15:14.762Z,16.05
2022-12-23T15:17:41.775Z,16.52
2022-12-23T15:20:11.211Z,17.55
2022-12-23T15:22:39.350Z,18.10
2022-12-23T15:25:20.292Z,17.52
2022-12-23T15:27:47.157Z,19.55
2022-12-23T15:30:15.088Z,15.73
2022-12-23T15:32:44.161Z,14.30
2022-12-23T15:35:18.948Z,17.77
2022-12-23T15:37:48.886Z,15.35
2022-12-23T15:40:36.232Z,15.30
2022-12-23T15:43:18.427Z,15.02
2022-12-23T15:45:45.166Z,17.38
2022-12-23T15:48:32.490Z,13.48
2022-12-23T15:51:05.083Z,18.60
2022-12-23T15:53:35.222Z,15.52
2022-12-23T15:56:07.175Z,16.52
2022-12-23T15:58:35.451Z,17.23
2022-12-23T16:01:02.038Z,39.13
2022-12-23T16:03:40.338Z,22.95
2022-12-23T16:06:19.349Z,19.63
2022-12-23T16:08:55.259Z,19.33
2022-12-23T16:11:22.850Z,14.98
2022-12-23T16:14:01.372Z,14.85
2022-12-23T16:16:40.771Z,18.05
2022-12-23T16:19:39.121Z,22.85
2022-12-23T16:22:27.184Z,21.25
2022-12-23T16:25:08.137Z,21.80
2022-12-23T16:27:38.597Z,19.75
2022-12-23T16:30:27.889Z,23.58
2022-12-23T16:32:56.823Z,23.17
2022-12-23T16:35:34.449Z,13.02
2022-12-23T16:38:17.968Z,14.00
2022-12-23T16:40:50.226Z,19.08
2022-12-23T16:43:17.526Z,15.23
2022-12-23T16:45:45.955Z,15.45
2022-12-23T16:48:50.020Z,16.55
2022-12-23T16:51:20.169Z,15.77
2022-12-23T16:53:51.573Z,13.77
2022-12-23T16:56:20.663Z,17.08
2022-12-23T16:58:47.844Z,15.05
2022-12-23T17:01:17.345Z,17.40
2022-12-23T17:03:43.889Z,19.25
2022-12-23T17:06:14.892Z,19.25
2022-12-23T17:08:42.121Z,19.20
2022-12-23T17:11:22.779Z,18.08
2022-12-23T17:13:49.583Z,18.60
2022-12-23T17:16:21.420Z,18.80
2022-12-23T17:18:48.803Z,20.02
2022-12-23T17:21:29.412Z,34.88
2022-12-23T17:24:03.350Z,33.30
2022-12-23T17:26:30.005Z,23.65
2022-12-23T17:28:56.574Z,26.58
2022-12-23T17:31:27.061Z,27.55
2022-12-23T17:33:54.432Z,21.75
2022-12-23T17:36:21.845Z,19.77
2022-12-23T17:38:48.466Z,20.15
2022-12-23T17:41:23.245Z,18.63
2022-12-23T17:43:49.745Z,14.73
2022-12-23T17:46:16.346Z,15.18
2022-12-23T17:48:42.879Z,14.55
2022-12-23T17:51:15.182Z,15.05
2022-12-23T17:53:42.336Z,14.93
2022-12-23T17:56:14.359Z,15.82
2022-12-23T17:58:42.388Z,16.63
2022-12-23T18:01:17.875Z,15.05
2022-12-23T18:03:44.443Z,14.98
2022-12-23T18:06:15.859Z,12.10
2022-12-23T18:08:42.709Z,13.48
2022-12-23T18:11:27.561Z,17.13
2022-12-23T18:13:54.277Z,16.38
2022-12-23T18:16:20.923Z,20.50
2022-12-23T18:18:47.541Z,15.15
2022-12-23T18:21:26.275Z,15.93
2022-12-23T18:23:54.877Z,15.02
2022-12-23T18:26:21.378Z,24.58
2022-12-23T18:28:47.988Z,20.60
2022-12-23T18:31:20.352Z,25.60
2022-12-23T18:33:47.691Z,23.85
2022-12-23T18:36:33.133Z,29.70
2022-12-23T18:38:59.934Z,31.30
2022-12-23T18:41:27.380Z,32.88
2022-12-23T18:43:54.698Z,26.17
2022-12-23T18:46:21.414Z,40.78
2022-12-23T18:48:48.399Z,45.97
2022-12-23T18:51:16.456Z,39.47
2022-12-23T18:53:43.567Z,38.42
2022-12-23T18:56:20.815Z,46.92
2022-12-23T18:58:47.296Z,36.13
2022-12-23T19:01:15.945Z,41.13
2022-12-23T19:03:43.488Z,32.67
2022-12-23T19:06:13.241Z,43.17
2022-12-23T19:08:41.318Z,39.78
2022-12-23T19:11:16.383Z,35.55
2022-12-23T19:13:43.250Z,37.85
2022-12-23T19:16:20.530Z,35.13
2022-12-23T19:18:48.235Z,35.30
2022-12-23T19:21:15.826Z,41.00
2022-12-23T19:23:43.109Z,34.63
2022-12-23T19:26:10.730Z,38.03
2022-12-23T19:28:39.033Z,38.15
2022-12-23T19:31:14.091Z,35.00
2022-12-23T19:33:42.356Z,35.00
2022-12-23T19:36:14.185Z,26.58
2022-12-23T19:41:07.494Z,35.65
2022-12-23T19:43:34.981Z,49.30
2022-12-23T19:46:04.418Z,36.17
2022-12-23T19:48:31.120Z,36.15
2022-12-23T19:51:12.972Z,33.45
2022-12-23T19:53:40.961Z,51.13
2022-12-23T19:56:13.427Z,43.90
2022-12-23T19:58:42.005Z,32.90
2022-12-23T20:01:12.839Z,36.38
2022-12-23T20:03:40.484Z,32.30
2022-12-23T20:06:08.507Z,31.67
2022-12-23T20:08:35.077Z,33.22
2022-12-23T20:11:03.768Z,44.55
2022-12-23T20:13:30.399Z,39.22
2022-12-23T20:15:56.903Z,42.38
2022-12-23T20:18:23.341Z,34.90
2022-12-23T20:20:49.869Z,23.63
2022-12-23T20:23:16.378Z,40.58
2022-12-23T20:25:43.009Z,28.33
2022-12-23T20:28:09.497Z,33.60
2022-12-23T20:30:36.029Z,33.70
2022-12-23T20:33:02.542Z,30.70
2022-12-23T20:35:30.129Z,29.83
2022-12-23T20:37:56.642Z,34.53
2022-12-23T20:40:23.123Z,34.85
2022-12-23T20:42:49.605Z,26.10
2022-12-23T20:45:16.245Z,25.67
2022-12-23T20:47:42.760Z,21.25
2022-12-23T20:50:09.435Z,20.10
2022-12-23T20:52:35.953Z,23.42
2022-12-23T20:55:02.494Z,27.48
2022-12-23T20:57:29.017Z,21.30
2022-12-23T20:59:55.450Z,20.92
2022-12-23T21:02:21.934Z,21.92
2022-12-23T21:04:48.438Z,15.52
2022-12-23T21:07:14.950Z,14.93
2022-12-23T21:09:41.370Z,12.27
2022-12-23T21:12:07.810Z,9.80
2022-12-23T21:14:34.338Z,18.50
2022-12-23T21:17:00.798Z,17.27
2022-12-23T21:19:27.640Z,21.38
2022-12-23T21:21:54.167Z,15.52
2022-12-23T21:24:21.119Z,20.67
2022-12-23T21:26:55.382Z,13.25
2022-12-23T21:29:23.467Z,16.75
2022-12-23T21:31:50.027Z,14.80
2022-12-23T21:34:17.830Z,19.83
2022-12-23T21:36:44.376Z,17.30
2022-12-23T21:39:15.016Z,16.92
2022-12-23T21:41:41.813Z,20.63
2022-12-23T21:44:10.150Z,17.40
2022-12-23T21:46:36.681Z,19.65
2022-12-23T21:49:03.640Z,19.73
2022-12-23T21:51:39.079Z,19.85
2022-12-23T21:54:07.420Z,14.73
2022-12-23T21:56:34.355Z,13.43
2022-12-23T21:59:11.373Z,16.85
2022-12-23T22:01:38.076Z,14.38
2022-12-23T22:04:05.077Z,17.38
2022-12-23T22:06:35.855Z,17.02
2022-12-23T22:09:03.387Z,14.90
2022-12-23T22:11:31.919Z,26.15
2022-12-23T22:14:00.391Z,14.60
2022-12-23T22:16:28.540Z,19.10
2022-12-23T22:18:56.832Z,21.25
2022-12-23T22:21:25.466Z,16.08
2022-12-23T22:23:53.129Z,21.88
2022-12-23T22:26:26.291Z,18.65
2022-12-23T22:28:55.435Z,21.27
2022-12-23T22:31:36.842Z,21.02
2022-12-23T22:34:04.674Z,14.77
2022-12-23T22:36:31.293Z,18.23
2022-12-23T22:38:59.792Z,15.82
2022-12-23T22:41:28.043Z,21.85
2022-12-23T22:43:55.125Z,16.25
2022-12-23T22:46:21.918Z,20.52
2022-12-23T22:48:48.532Z,17.42
2022-12-23T22:51:18.030Z,17.05
2022-12-23T22:53:45.181Z,30.13
2022-12-23T22:56:13.719Z,19.45
2022-12-23T22:58:40.252Z,26.88
2022-12-23T23:01:07.428Z,19.48
2022-12-23T23:03:34.017Z,10.52
2022-12-23T23:06:07.109Z,17.60
2022-12-23T23:08:34.689Z,15.20
2022-12-23T23:11:05.021Z,19.67
2022-12-23T23:13:34.630Z,20.38
2022-12-23T23:16:02.415Z,22.02
2022-12-23T23:18:30.243Z,25.30
2022-12-23T23:20:56.988Z,18.55
2022-12-23T23:23:23.543Z,22.08
2022-12-23T23:25:50.158Z,17.38
2022-12-23T23:28:16.776Z,17.17
2022-12-23T23:30:43.512Z,19.92
2022-12-23T23:33:10.645Z,16.98
2022-12-23T23:35:37.564Z,26.67
2022-12-23T23:38:04.082Z,21.73
2022-12-23T23:40:30.604Z,18.77
2022-12-23T23:42:57.088Z,22.08
2022-12-23T23:45:23.591Z,28.27
2022-12-23T23:47:50.154Z,20.15
2022-12-23T23:50:16.778Z,15.55
2022-12-23T23:52:43.299Z,23.35
2022-12-23T23:55:10.382Z,25.48
2022-12-23T23:57:37.140Z,18.25
